Carlisle, Washington
Current Conditions -  °F | °C
As of 12:06 PM on Sunday 21 Dec 2014 (Local Time) from KHQM Reporting Station
Haze Haze  
Wind Chill: 53°   Ceiling: 3900
Heat Index: 53°   Visibility: 3mi
Dew Point: 52°   Wind: 14mph
Humidity: 96%   Direction: 220°SW
Pressure: 30.01"   Gusts: NA
Location:  47.1425°N, 124.097°W
Report Text: KHQM 212006Z AUTO 22012KT 3SM BR FEW022 BKN039 OVC050 12/11 A3001 RMK AO2 T01170111
Loading
Personal Weather Stations






























Interactive Weather Map New forecast layout! Learn more

10-Day Weather Forecast

Advertisements
Track Severe Weather on mobile